Time;durP1;ratioP1;P1;durP2;ratioP2;P2;SDS_P1;SDS_P2;PMS_P1;PMS_P2;Temp;Humidity;BMP_temperature;BMP_pressure;BME280_temperature;BME280_humidity;BME280_pressure;Samples;Min_cycle;Max_cycle;Signal;HPM_P1;HPM_P2
2022/01/02 00:01:40;;;;;;;5.55;4.30;;;14.80;52.50;;;;;;5147675;27;46780;-17
2022/01/02 00:04:06;;;;;;;4.13;3.60;;;14.80;52.40;;;;;;5147663;27;47282;-17
2022/01/02 00:06:34;;;;;;;4.95;4.20;;;14.70;52.40;;;;;;5147732;27;47940;-17
2022/01/02 00:09:02;;;;;;;4.93;4.28;;;14.70;52.40;;;;;;5147333;27;47480;-17
2022/01/02 00:11:29;;;;;;;5.00;4.40;;;14.70;52.40;;;;;;5147834;27;46975;-17
2022/01/02 00:13:57;;;;;;;4.93;4.28;;;14.70;52.50;;;;;;5147822;27;46957;-17
2022/01/02 00:16:24;;;;;;;5.63;4.13;;;14.70;52.40;;;;;;5147278;27;47840;-17
2022/01/02 00:19:04;;;;;;;4.82;3.90;;;14.70;52.40;;;;;;5147145;27;46912;-17
2022/01/02 00:21:32;;;;;;;5.03;4.15;;;14.70;52.30;;;;;;5147671;27;46892;-17
2022/01/02 00:24:02;;;;;;;5.00;4.35;;;14.70;52.30;;;;;;5147639;27;46932;-17
2022/01/02 00:26:36;;;;;;;4.00;3.60;;;14.70;52.20;;;;;;5147568;27;49153;-17
2022/01/02 00:29:03;;;;;;;5.88;4.38;;;14.60;52.30;;;;;;5147340;27;46890;-18
2022/01/02 00:31:31;;;;;;;5.95;4.28;;;14.60;52.30;;;;;;5147452;27;46873;-19
2022/01/02 00:33:59;;;;;;;6.45;4.60;;;14.60;52.20;;;;;;5147462;27;46921;-18
2022/01/02 00:36:25;;;;;;;4.18;3.78;;;14.60;52.20;;;;;;5147255;27;49058;-17
2022/01/02 00:38:52;;;;;;;5.65;4.40;;;14.60;52.20;;;;;;5147323;27;47143;-17
2022/01/02 00:41:23;;;;;;;4.85;4.00;;;14.60;52.20;;;;;;5147012;27;46821;-17
2022/01/02 00:43:58;;;;;;;4.43;4.03;;;14.60;52.20;;;;;;5147642;27;46898;-17
2022/01/02 00:46:25;;;;;;;5.07;4.38;;;14.60;52.20;;;;;;5147195;27;47057;-17
2022/01/02 00:48:51;;;;;;;4.38;3.85;;;14.50;52.20;;;;;;5146836;27;46782;-18
2022/01/02 00:51:22;;;;;;;4.40;3.97;;;14.50;52.20;;;;;;5148450;27;46991;-19
2022/01/02 00:53:49;;;;;;;4.63;3.80;;;14.50;52.20;;;;;;5150823;27;46930;-17
2022/01/02 00:56:16;;;;;;;4.65;3.80;;;14.50;52.10;;;;;;5150555;27;49069;-17
2022/01/02 00:58:46;;;;;;;5.60;3.90;;;14.50;52.20;;;;;;5150555;27;47239;-17
2022/01/02 01:01:15;;;;;;;4.63;4.00;;;14.50;52.20;;;;;;5150499;27;46810;-17
2022/01/02 01:03:42;;;;;;;5.38;4.00;;;14.50;52.30;;;;;;5150891;27;46866;-17
2022/01/02 01:06:10;;;;;;;5.70;3.83;;;14.40;52.30;;;;;;5150543;27;49125;-17
2022/01/02 01:08:38;;;;;;;5.18;4.18;;;14.40;52.20;;;;;;5150305;27;47008;-17
2022/01/02 01:11:05;;;;;;;4.55;3.85;;;14.40;52.40;;;;;;5150356;27;46959;-17
2022/01/02 01:13:32;;;;;;;4.35;3.72;;;14.40;52.30;;;;;;5150382;27;47137;-17
2022/01/02 01:15:58;;;;;;;5.03;4.13;;;14.40;52.30;;;;;;5150428;27;48119;-16
2022/01/02 01:18:25;;;;;;;5.03;4.15;;;14.40;52.20;;;;;;5150236;27;47228;-16
2022/01/02 01:20:53;;;;;;;4.80;3.83;;;14.40;52.30;;;;;;5150637;27;47258;-17
2022/01/02 01:23:20;;;;;;;4.78;3.97;;;14.30;52.20;;;;;;5150826;27;47041;-16
2022/01/02 01:25:49;;;;;;;4.00;3.60;;;14.30;52.20;;;;;;5150181;27;46941;-16
2022/01/02 01:28:16;;;;;;;5.82;3.80;;;14.30;52.20;;;;;;5150092;27;47006;-16
2022/01/02 01:30:43;;;;;;;4.35;3.85;;;14.30;52.20;;;;;;5150204;27;46890;-17
2022/01/02 01:33:10;;;;;;;4.82;3.85;;;14.30;52.20;;;;;;5150119;27;46984;-16
2022/01/02 01:35:37;;;;;;;4.90;3.63;;;14.30;52.40;;;;;;5149968;27;48852;-16
2022/01/02 01:38:04;;;;;;;4.78;3.70;;;14.20;52.20;;;;;;5149744;27;46882;-16
2022/01/02 01:40:36;;;;;;;5.57;4.20;;;14.20;52.20;;;;;;5149810;27;47127;-16
2022/01/02 01:43:04;;;;;;;4.55;3.65;;;14.20;52.20;;;;;;5150129;27;46940;-16
2022/01/02 01:45:31;;;;;;;3.92;3.53;;;14.20;52.20;;;;;;5149366;27;47870;-16
2022/01/02 01:47:58;;;;;;;4.20;3.75;;;14.20;52.10;;;;;;5150278;27;46915;-15
2022/01/02 01:50:26;;;;;;;4.88;3.72;;;14.20;52.10;;;;;;5149878;27;46821;-16
2022/01/02 01:52:53;;;;;;;4.03;3.63;;;14.20;52.20;;;;;;5149877;27;46923;-16
2022/01/02 01:55:20;;;;;;;5.15;3.80;;;14.20;52.10;;;;;;5149710;27;48221;-16
2022/01/02 01:57:47;;;;;;;4.93;4.00;;;14.20;52.10;;;;;;5149729;27;47041;-16
2022/01/02 02:00:17;;;;;;;4.35;3.92;;;14.20;52.10;;;;;;5149447;27;46857;-16
2022/01/02 02:02:44;;;;;;;4.40;3.67;;;14.10;52.20;;;;;;5148376;27;46888;-16
2022/01/02 02:05:10;;;;;;;4.38;3.97;;;14.10;52.20;;;;;;5149605;27;47954;-16
2022/01/02 02:07:40;;;;;;;4.18;3.45;;;14.10;52.20;;;;;;5149671;27;46851;-15
2022/01/02 02:10:12;;;;;;;3.80;3.40;;;14.10;52.20;;;;;;5149572;27;46886;-18
2022/01/02 02:12:39;;;;;;;4.07;3.40;;;14.10;52.10;;;;;;5149721;27;46932;-17
2022/01/02 02:15:06;;;;;;;4.97;3.70;;;14.10;52.10;;;;;;5149390;27;47078;-16
2022/01/02 02:17:34;;;;;;;3.67;3.38;;;14.10;52.10;;;;;;5149433;27;46898;-17
2022/01/02 02:20:12;;;;;;;4.68;3.70;;;14.10;52.10;;;;;;5149387;27;46897;-16
2022/01/02 02:22:41;;;;;;;4.03;3.63;;;14.00;52.10;;;;;;5149791;27;46921;-16
2022/01/02 02:25:08;;;;;;;3.67;3.38;;;14.00;52.00;;;;;;5149204;27;47803;-16
2022/01/02 02:27:35;;;;;;;5.03;3.70;;;14.00;52.10;;;;;;5148997;27;47038;-16
2022/01/02 02:30:01;;;;;;;5.60;3.75;;;14.00;52.10;;;;;;5149092;27;46933;-16
2022/01/02 02:32:28;;;;;;;3.45;3.15;;;14.00;52.10;;;;;;5149565;27;46876;-16
2022/01/02 02:34:55;;;;;;;4.00;3.60;;;14.00;52.00;;;;;;5149042;27;48244;-16
2022/01/02 02:37:25;;;;;;;4.55;3.65;;;14.00;52.00;;;;;;5149076;27;46778;-16
2022/01/02 02:39:51;;;;;;;5.35;3.92;;;14.00;52.10;;;;;;5148966;27;46906;-16
2022/01/02 02:42:29;;;;;;;4.55;3.65;;;13.90;52.00;;;;;;5149240;27;46882;-16
2022/01/02 02:48:56;;;;;;;4.07;3.60;;;13.90;52.10;;;;;;5148274;27;47933;-17
2022/01/02 02:50:29;;;;;;;4.88;3.60;;;13.90;52.10;;;;;;5148233;27;46878;-18
2022/01/02 02:52:57;;;;;;;6.47;3.88;;;13.90;52.10;;;;;;5149201;27;46909;-16
2022/01/02 02:55:30;;;;;;;4.07;3.67;;;13.90;52.10;;;;;;5148669;27;48062;-16
2022/01/02 02:58:08;;;;;;;4.20;3.80;;;13.90;52.00;;;;;;5149022;27;47212;-16
2022/01/02 03:00:35;;;;;;;5.15;3.50;;;13.90;52.10;;;;;;5148492;27;46910;-16
2022/01/02 03:03:01;;;;;;;4.60;3.38;;;13.80;52.00;;;;;;5149095;27;46849;-17
2022/01/02 03:05:28;;;;;;;4.60;3.60;;;13.80;52.10;;;;;;5148095;27;47061;-17
2022/01/02 03:07:57;;;;;;;3.75;3.40;;;13.80;52.00;;;;;;5148814;27;47108;-17
2022/01/02 03:10:23;;;;;;;4.88;3.72;;;13.80;52.00;;;;;;5148356;27;46878;-16
2022/01/02 03:12:50;;;;;;;3.67;3.30;;;13.80;52.10;;;;;;5149109;27;46836;-17
2022/01/02 03:15:17;;;;;;;4.20;3.67;;;13.80;52.10;;;;;;5147896;27;49079;-16
2022/01/02 03:17:44;;;;;;;3.47;3.17;;;13.80;52.10;;;;;;5148161;27;46861;-16
2022/01/02 03:20:10;;;;;;;4.68;3.33;;;13.70;52.10;;;;;;5148335;27;47093;-16
2022/01/02 03:22:37;;;;;;;4.82;3.67;;;13.70;52.10;;;;;;5148765;27;47255;-17
2022/01/02 03:25:06;;;;;;;4.05;3.65;;;13.70;52.00;;;;;;5148268;27;47842;-16
2022/01/02 03:27:33;;;;;;;3.45;3.15;;;13.70;52.00;;;;;;5148079;27;46825;-17
2022/01/02 03:30:02;;;;;;;3.85;3.45;;;13.70;52.00;;;;;;5148497;27;46922;-16
2022/01/02 03:32:29;;;;;;;4.25;3.83;;;13.70;52.10;;;;;;5148626;27;47083;-17
2022/01/02 03:34:55;;;;;;;3.55;3.25;;;13.70;52.10;;;;;;5148202;27;47932;-16
2022/01/02 03:37:22;;;;;;;4.50;3.70;;;13.70;52.10;;;;;;5147998;27;46947;-16
2022/01/02 03:39:49;;;;;;;3.67;3.35;;;13.60;52.10;;;;;;5147687;27;46910;-17
2022/01/02 03:42:17;;;;;;;3.60;3.30;;;13.60;52.00;;;;;;5148502;27;46893;-17
2022/01/02 03:44:43;;;;;;;4.72;3.72;;;13.60;52.00;;;;;;5147727;27;49061;-17
2022/01/02 03:47:10;;;;;;;4.95;3.80;;;13.60;52.00;;;;;;5148065;27;46960;-17
2022/01/02 03:49:37;;;;;;;4.57;3.70;;;13.60;52.00;;;;;;5147946;27;46866;-17
2022/01/02 03:52:04;;;;;;;3.50;3.17;;;13.60;52.00;;;;;;5148323;27;46899;-16
2022/01/02 03:54:30;;;;;;;4.97;3.80;;;13.60;52.00;;;;;;5147726;27;48117;-17
2022/01/02 03:56:57;;;;;;;4.18;3.45;;;13.60;52.00;;;;;;5147839;27;46954;-17
2022/01/02 03:59:25;;;;;;;5.40;3.53;;;13.60;52.00;;;;;;5147310;27;46953;-17
2022/01/02 04:01:52;;;;;;;4.47;3.83;;;13.60;52.00;;;;;;5148064;27;47212;-17
2022/01/02 04:04:18;;;;;;;4.07;3.65;;;13.50;52.00;;;;;;5147574;27;48092;-16
2022/01/02 04:06:45;;;;;;;3.70;3.30;;;13.60;52.10;;;;;;5147486;27;46891;-17
2022/01/02 04:09:12;;;;;;;4.22;3.67;;;13.50;52.00;;;;;;5147648;27;47000;-17
2022/01/02 04:11:38;;;;;;;4.28;3.45;;;13.50;52.00;;;;;;5147954;27;47255;-17
2022/01/02 04:14:05;;;;;;;4.30;3.78;;;13.50;52.00;;;;;;5147499;27;48120;-16
2022/01/02 04:16:33;;;;;;;4.10;3.50;;;13.50;52.10;;;;;;5147332;27;46831;-18
2022/01/02 04:19:00;;;;;;;4.00;3.60;;;13.50;52.00;;;;;;5147603;27;46916;-17
2022/01/02 04:21:27;;;;;;;4.25;3.60;;;13.50;52.00;;;;;;5147817;27;46853;-16
2022/01/02 04:23:53;;;;;;;4.28;3.60;;;13.50;52.00;;;;;;5147054;27;47075;-17
2022/01/02 04:26:20;;;;;;;3.97;3.42;;;13.50;52.00;;;;;;5146171;27;47135;-18
2022/01/02 04:28:48;;;;;;;3.60;3.30;;;13.50;52.10;;;;;;5147577;27;46876;-17
2022/01/02 04:31:14;;;;;;;3.38;3.08;;;13.50;52.00;;;;;;5147361;27;47118;-16
2022/01/02 04:33:42;;;;;;;3.72;3.33;;;13.50;52.10;;;;;;5147365;27;46979;-15
2022/01/02 04:36:09;;;;;;;4.17;3.77;;;13.50;52.10;;;;;;5147453;27;46888;-17
2022/01/02 04:38:37;;;;;;;3.63;3.30;;;13.40;52.00;;;;;;5147351;27;46898;-17
2022/01/02 04:41:04;;;;;;;4.63;3.53;;;13.40;52.10;;;;;;5147635;27;46871;-17
2022/01/02 04:43:31;;;;;;;5.55;3.67;;;13.40;52.10;;;;;;5146860;27;47876;-16
2022/01/02 04:45:57;;;;;;;3.70;3.20;;;13.40;52.20;;;;;;5147179;27;47271;-17
2022/01/02 04:48:24;;;;;;;4.70;3.80;;;13.40;52.10;;;;;;5147273;27;46808;-17
2022/01/02 04:50:52;;;;;;;3.90;3.47;;;13.40;52.10;;;;;;5147434;27;47182;-16
2022/01/02 04:53:20;;;;;;;3.67;3.20;;;13.40;52.10;;;;;;5147204;27;47931;-18
2022/01/02 04:55:46;;;;;;;4.07;3.53;;;13.40;52.20;;;;;;5147420;27;47078;-16
2022/01/02 04:58:13;;;;;;;4.38;3.60;;;13.40;52.10;;;;;;5147078;27;47051;-17
2022/01/02 05:00:40;;;;;;;4.47;3.07;;;13.40;52.10;;;;;;5147152;27;47171;-16
2022/01/02 05:03:06;;;;;;;3.53;3.22;;;13.40;52.10;;;;;;5146716;27;47999;-17
2022/01/02 05:05:33;;;;;;;3.78;3.15;;;13.40;52.10;;;;;;5146448;27;47457;-16
2022/01/02 05:08:01;;;;;;;3.40;3.10;;;13.40;52.10;;;;;;5146795;27;46794;-17
2022/01/02 05:10:28;;;;;;;4.47;3.55;;;13.30;52.00;;;;;;5146726;27;46832;-16
2022/01/02 05:12:54;;;;;;;3.83;3.27;;;13.40;52.10;;;;;;5146815;27;47868;-16
2022/01/02 05:15:21;;;;;;;3.40;3.10;;;13.40;52.10;;;;;;5146703;27;47094;-17
2022/01/02 05:17:48;;;;;;;4.20;3.53;;;13.40;52.10;;;;;;5146626;27;46879;-17
2022/01/02 05:20:15;;;;;;;3.90;3.40;;;13.30;52.00;;;;;;5146892;27;47957;-17
2022/01/02 05:22:42;;;;;;;3.90;3.50;;;13.40;52.00;;;;;;5146527;27;49026;-16
2022/01/02 05:25:10;;;;;;;3.57;3.10;;;13.40;52.00;;;;;;5146606;27;46870;-16
2022/01/02 05:27:36;;;;;;;4.03;3.03;;;13.40;52.00;;;;;;5146669;27;46870;-17
2022/01/02 05:30:04;;;;;;;3.67;3.38;;;13.30;51.90;;;;;;5146715;27;47267;-17
2022/01/02 05:32:30;;;;;;;5.63;3.20;;;13.30;52.00;;;;;;5146356;27;47903;-17
2022/01/02 05:34:57;;;;;;;4.17;3.40;;;13.30;51.90;;;;;;5146142;27;46862;-17
2022/01/02 05:37:24;;;;;;;3.90;3.30;;;13.30;52.00;;;;;;5147912;27;46957;-17
2022/01/02 05:39:50;;;;;;;4.70;3.67;;;13.30;52.00;;;;;;5150259;27;46907;-16
2022/01/02 05:42:18;;;;;;;4.18;3.78;;;13.30;52.00;;;;;;5149775;27;48101;-17
2022/01/02 05:44:45;;;;;;;4.10;3.40;;;13.30;52.00;;;;;;5149528;27;47468;-17
2022/01/02 05:47:12;;;;;;;3.73;3.37;;;13.30;52.10;;;;;;5150157;27;46901;-17
2022/01/02 05:49:38;;;;;;;3.90;3.20;;;13.30;52.00;;;;;;5149957;27;47022;-18
2022/01/02 05:52:05;;;;;;;3.50;3.20;;;13.20;52.10;;;;;;5149893;27;48271;-16
2022/01/02 05:54:32;;;;;;;3.92;3.15;;;13.30;52.10;;;;;;5149729;27;46913;-16
2022/01/02 05:56:58;;;;;;;5.00;3.60;;;13.20;52.00;;;;;;5149704;27;46768;-17
2022/01/02 05:59:27;;;;;;;3.80;3.40;;;13.30;52.10;;;;;;5149510;27;46905;-17
2022/01/02 06:01:54;;;;;;;3.97;3.30;;;13.20;52.00;;;;;;5149818;27;47649;-18
2022/01/02 06:04:21;;;;;;;4.70;3.40;;;13.20;52.00;;;;;;5149625;27;47030;-16
2022/01/02 06:06:47;;;;;;;3.87;3.47;;;13.20;52.10;;;;;;5149447;27;46894;-17
2022/01/02 06:09:14;;;;;;;3.70;3.40;;;13.20;52.10;;;;;;5149416;27;47323;-15
2022/01/02 06:11:41;;;;;;;3.88;3.15;;;13.20;52.10;;;;;;5149605;27;47062;-18
2022/01/02 06:14:07;;;;;;;3.50;3.05;;;13.20;52.00;;;;;;5149266;27;47011;-17
2022/01/02 06:16:35;;;;;;;3.50;3.20;;;13.20;52.10;;;;;;5149585;27;46942;-17
2022/01/02 06:19:02;;;;;;;3.15;2.85;;;13.20;52.10;;;;;;5149176;27;46914;-17
2022/01/02 06:21:29;;;;;;;4.20;3.43;;;13.20;52.10;;;;;;5149416;27;47629;-17
2022/01/02 06:23:55;;;;;;;3.93;3.30;;;13.20;52.10;;;;;;5149076;27;46820;-17
2022/01/02 06:26:22;;;;;;;3.50;3.20;;;13.20;52.20;;;;;;5149406;27;46892;-17
2022/01/02 06:28:49;;;;;;;4.10;3.30;;;13.20;52.10;;;;;;5149232;27;46930;-17
2022/01/02 06:31:15;;;;;;;3.57;3.20;;;13.20;52.10;;;;;;5149213;27;47966;-17
2022/01/02 06:33:44;;;;;;;4.00;3.30;;;13.20;52.10;;;;;;5149135;27;47005;-18
2022/01/02 06:36:11;;;;;;;3.70;3.10;;;13.20;52.10;;;;;;5149169;27;46753;-17
2022/01/02 06:38:37;;;;;;;3.23;2.93;;;13.20;52.10;;;;;;5149089;27;47202;-17
2022/01/02 06:41:04;;;;;;;3.70;3.30;;;13.20;52.20;;;;;;5149093;27;48005;-17
2022/01/02 06:43:32;;;;;;;3.30;3.00;;;13.20;52.20;;;;;;5149097;27;46842;-17
2022/01/02 06:45:59;;;;;;;3.10;2.90;;;13.20;52.20;;;;;;5149076;27;46843;-16
2022/01/02 06:48:25;;;;;;;3.40;3.10;;;13.20;52.20;;;;;;5148586;27;47251;-17
2022/01/02 06:50:53;;;;;;;3.73;3.10;;;13.20;52.10;;;;;;5148552;27;47948;-17
2022/01/02 06:53:20;;;;;;;3.90;3.53;;;13.20;52.10;;;;;;5148940;27;46974;-16
2022/01/02 06:55:47;;;;;;;3.67;3.10;;;13.20;52.20;;;;;;5148836;27;46864;-16
2022/01/02 06:58:14;;;;;;;3.27;2.97;;;13.20;52.20;;;;;;5148783;27;47300;-16
2022/01/02 07:00:41;;;;;;;3.67;3.27;;;13.20;52.20;;;;;;5148302;27;48815;-17
2022/01/02 07:03:08;;;;;;;3.43;2.83;;;13.20;52.20;;;;;;5148769;27;46863;-16
2022/01/02 07:05:34;;;;;;;3.20;2.90;;;13.20;52.10;;;;;;5148647;27;47032;-17
2022/01/02 07:08:02;;;;;;;4.27;3.23;;;13.10;52.00;;;;;;5148977;27;47266;-18
2022/01/02 07:10:29;;;;;;;4.13;3.20;;;13.20;52.10;;;;;;5148494;27;47869;-16
2022/01/02 07:12:56;;;;;;;3.00;2.80;;;13.20;52.20;;;;;;5148303;27;47459;-16
2022/01/02 07:15:23;;;;;;;3.50;3.20;;;13.20;52.10;;;;;;5148489;27;46811;-16
2022/01/02 07:17:49;;;;;;;4.53;3.00;;;13.10;52.10;;;;;;5148599;27;47248;-16
2022/01/02 07:20:16;;;;;;;3.43;3.10;;;13.20;52.20;;;;;;5148274;27;48091;-17
2022/01/02 07:22:43;;;;;;;3.77;2.90;;;13.10;52.20;;;;;;5148570;27;47132;-17
2022/01/02 07:25:11;;;;;;;3.97;3.17;;;13.10;52.10;;;;;;5148044;27;46920;-16
2022/01/02 07:27:38;;;;;;;2.80;2.60;;;13.10;52.20;;;;;;5148548;27;46825;-16
2022/01/02 07:30:05;;;;;;;3.47;3.17;;;13.10;52.10;;;;;;5147793;27;48744;-17
2022/01/02 07:32:32;;;;;;;4.33;3.37;;;13.10;52.10;;;;;;5148066;27;47032;-18
2022/01/02 07:34:59;;;;;;;3.23;2.93;;;13.10;52.10;;;;;;5147815;27;46883;-17
2022/01/02 07:37:26;;;;;;;3.43;2.63;;;13.10;52.20;;;;;;5148254;27;47245;-16
2022/01/02 07:39:52;;;;;;;3.43;2.97;;;13.10;52.20;;;;;;5147976;27;47310;-17
2022/01/02 07:42:20;;;;;;;2.97;2.70;;;13.10;52.20;;;;;;5148036;27;46940;-17
2022/01/02 07:44:47;;;;;;;3.57;3.10;;;13.10;52.20;;;;;;5147812;27;47426;-17
2022/01/02 07:47:14;;;;;;;3.00;2.73;;;13.10;52.20;;;;;;5148427;27;46848;-17
2022/01/02 07:49:40;;;;;;;3.57;3.00;;;13.10;52.20;;;;;;5147658;27;48128;-17
2022/01/02 07:52:07;;;;;;;3.30;3.00;;;13.10;52.20;;;;;;5147941;27;46869;-17
2022/01/02 07:54:34;;;;;;;3.13;2.80;;;13.10;52.20;;;;;;5147838;27;46837;-16
2022/01/02 07:57:00;;;;;;;3.30;3.00;;;13.10;52.20;;;;;;5147939;27;47310;-17
2022/01/02 07:59:28;;;;;;;3.27;2.63;;;13.10;52.20;;;;;;5147816;27;48177;-17
2022/01/02 08:01:55;;;;;;;3.70;3.30;;;13.10;52.20;;;;;;5147782;27;46828;-16
2022/01/02 08:04:22;;;;;;;3.00;2.60;;;13.10;52.20;;;;;;5147452;27;46974;-17
2022/01/02 08:06:48;;;;;;;3.57;3.27;;;13.10;52.20;;;;;;5148088;27;46879;-17
2022/01/02 08:09:15;;;;;;;3.80;3.30;;;13.10;52.20;;;;;;5147606;27;48224;-17
2022/01/02 08:11:42;;;;;;;3.90;3.23;;;13.10;52.20;;;;;;5147984;27;47065;-17
2022/01/02 08:14:09;;;;;;;3.30;3.00;;;13.10;52.20;;;;;;5147518;27;46838;-16
2022/01/02 08:16:37;;;;;;;4.13;2.93;;;13.00;52.20;;;;;;5147641;27;47082;-16
2022/01/02 08:19:05;;;;;;;3.40;2.90;;;13.10;52.30;;;;;;5147538;27;48948;-16
2022/01/02 08:21:32;;;;;;;3.83;2.90;;;13.00;52.20;;;;;;5147211;27;47016;-17
2022/01/02 08:23:59;;;;;;;3.10;2.80;;;13.00;52.10;;;;;;5147593;27;46855;-17
2022/01/02 08:26:25;;;;;;;3.67;3.20;;;13.00;52.20;;;;;;5147488;27;47139;-17
2022/01/02 08:28:53;;;;;;;3.00;2.70;;;13.00;52.20;;;;;;5147411;27;46900;-16
2022/01/02 08:31:20;;;;;;;3.20;2.90;;;13.10;52.30;;;;;;5147434;27;46901;-16
2022/01/02 08:33:48;;;;;;;3.20;2.90;;;13.10;52.30;;;;;;5147184;27;46941;-18
2022/01/02 08:36:15;;;;;;;3.20;2.87;;;13.10;52.20;;;;;;5147372;27;46853;-16
2022/01/02 08:38:41;;;;;;;2.87;2.60;;;13.10;52.30;;;;;;5146913;27;47813;-16
2022/01/02 08:41:08;;;;;;;3.10;2.80;;;13.00;52.10;;;;;;5146981;27;46843;-17
2022/01/02 08:43:35;;;;;;;4.17;3.10;;;13.10;52.20;;;;;;5147450;27;47010;-17
2022/01/02 08:46:02;;;;;;;3.97;2.80;;;13.10;52.20;;;;;;5146988;27;46870;-17
2022/01/02 08:48:29;;;;;;;3.00;2.70;;;13.00;52.20;;;;;;5146843;27;49045;-17
2022/01/02 08:50:57;;;;;;;3.53;2.97;;;13.10;52.30;;;;;;5146871;27;46818;-16
2022/01/02 08:53:23;;;;;;;3.07;2.60;;;13.10;52.20;;;;;;5146960;27;46794;-16
2022/01/02 08:55:50;;;;;;;3.10;2.83;;;13.10;52.90;;;;;;5146875;27;47332;-16
2022/01/02 08:58:17;;;;;;;3.20;2.80;;;13.10;52.30;;;;;;5146772;27;47907;-18
2022/01/02 09:00:44;;;;;;;3.33;2.77;;;13.10;52.20;;;;;;5146678;27;46880;-16
2022/01/02 09:03:10;;;;;;;2.63;2.40;;;13.10;52.30;;;;;;5147081;27;46856;-16
2022/01/02 09:05:37;;;;;;;2.50;2.30;;;13.10;52.30;;;;;;5147086;27;46960;-17
2022/01/02 09:08:06;;;;;;;3.57;3.00;;;13.10;52.30;;;;;;5146630;27;47246;-16
2022/01/02 09:10:33;;;;;;;2.57;2.37;;;13.10;52.30;;;;;;5146396;27;47104;-16
2022/01/02 09:12:59;;;;;;;2.90;2.60;;;13.10;52.30;;;;;;5148834;27;46879;-16
2022/01/02 09:15:26;;;;;;;2.70;2.50;;;13.10;52.30;;;;;;5150369;27;47246;-17
2022/01/02 09:17:53;;;;;;;2.60;2.40;;;13.10;52.20;;;;;;5150373;27;46905;-17
2022/01/02 09:20:21;;;;;;;3.33;2.73;;;13.10;52.30;;;;;;5150144;27;46909;-16
2022/01/02 09:22:47;;;;;;;3.13;2.60;;;13.10;52.30;;;;;;5150295;27;47020;-17
2022/01/02 09:25:15;;;;;;;2.77;2.57;;;13.10;52.20;;;;;;5150173;27;47065;-16
2022/01/02 09:27:44;;;;;;;2.90;2.60;;;13.10;52.20;;;;;;5150344;27;47888;-16
2022/01/02 09:30:11;;;;;;;2.80;2.57;;;13.10;52.20;;;;;;5150034;27;46858;-20
2022/01/02 09:32:38;;;;;;;2.50;2.30;;;13.10;52.20;;;;;;5150508;27;46866;-17
2022/01/02 09:35:06;;;;;;;2.70;2.40;;;13.10;52.10;;;;;;5150408;27;46856;-17
2022/01/02 09:37:34;;;;;;;3.00;2.40;;;13.10;52.10;;;;;;5149879;27;48212;-16
2022/01/02 09:40:00;;;;;;;3.60;2.63;;;13.20;52.20;;;;;;5150098;27;46878;-16
2022/01/02 09:42:28;;;;;;;2.60;2.40;;;13.20;52.10;;;;;;5149935;27;46981;-16
2022/01/02 09:44:55;;;;;;;2.83;2.53;;;13.20;52.10;;;;;;5149811;27;46982;-17
2022/01/02 09:47:22;;;;;;;2.50;2.30;;;13.20;52.10;;;;;;5149944;27;48220;-16
2022/01/02 09:49:49;;;;;;;2.83;2.20;;;13.20;52.10;;;;;;5149702;27;47755;-16
2022/01/02 09:52:16;;;;;;;2.50;2.30;;;13.20;52.10;;;;;;5149706;27;46864;-17
2022/01/02 09:54:43;;;;;;;2.73;2.30;;;13.30;52.00;;;;;;5149872;27;47531;-16
2022/01/02 09:57:11;;;;;;;2.67;2.47;;;13.20;52.00;;;;;;5149771;27;49070;-16
2022/01/02 09:59:41;;;;;;;2.30;2.10;;;13.30;52.10;;;;;;5148891;27;47105;-16
2022/01/02 10:02:09;;;;;;;2.63;2.43;;;13.30;51.70;;;;;;5128355;27;46939;-16
2022/01/02 10:04:38;;;;;;;2.43;2.23;;;13.30;51.80;;;;;;5128088;27;46983;-17
2022/01/02 10:07:06;;;;;;;2.53;2.33;;;13.30;51.80;;;;;;5128154;27;49040;-17
2022/01/02 10:09:34;;;;;;;2.63;2.10;;;13.30;51.80;;;;;;5127783;27;46844;-16
2022/01/02 10:12:28;;;;;;;2.10;1.90;;;13.30;51.80;;;;;;5126882;27;46873;-16
2022/01/02 10:15:16;;;;;;;2.63;2.20;;;13.30;51.80;;;;;;5128069;27;48127;-16
2022/01/02 10:17:56;;;;;;;2.13;1.93;;;13.40;51.80;;;;;;5128036;27;48012;-16
2022/01/02 10:20:23;;;;;;;3.47;2.10;;;13.40;51.80;;;;;;5128016;27;47516;-17
2022/01/02 10:23:03;;;;;;;2.40;2.20;;;13.40;51.80;;;;;;5128073;27;46917;-16
2022/01/02 10:25:40;;;;;;;2.28;2.08;;;13.40;51.70;;;;;;5127260;27;46943;-16
2022/01/02 10:28:30;;;;;;;2.30;2.10;;;13.40;51.80;;;;;;5128336;27;47035;-16
2022/01/02 10:31:03;;;;;;;2.50;2.30;;;13.50;51.80;;;;;;5128554;27;46862;-16
2022/01/02 10:33:32;;;;;;;2.20;1.97;;;13.50;52.40;;;;;;5128426;27;47076;-17
2022/01/02 10:36:02;;;;;;;2.27;2.07;;;13.50;51.70;;;;;;5127930;27;46931;-16
2022/01/02 10:38:30;;;;;;;2.10;1.90;;;13.50;51.70;;;;;;5128536;27;48675;-17
2022/01/02 10:40:56;;;;;;;3.07;2.43;;;13.50;51.60;;;;;;5128103;27;46895;-16
2022/01/02 10:43:28;;;;;;;2.10;1.90;;;13.50;51.70;;;;;;5128343;27;47061;-16
2022/01/02 10:45:55;;;;;;;2.03;1.83;;;13.50;51.60;;;;;;5128006;27;46832;-16
2022/01/02 10:48:34;;;;;;;2.20;1.80;;;13.50;51.60;;;;;;5127914;27;48729;-16
2022/01/02 10:51:03;;;;;;;2.70;1.80;;;13.50;51.60;;;;;;5127921;27;46857;-16
2022/01/02 10:53:31;;;;;;;1.80;1.70;;;13.50;51.60;;;;;;5127944;27;46919;-16
2022/01/02 10:55:57;;;;;;;2.00;1.90;;;13.50;51.60;;;;;;5128226;27;46822;-16
2022/01/02 10:58:25;;;;;;;2.00;1.90;;;13.50;51.60;;;;;;5126991;27;49027;-16
2022/01/02 11:00:51;;;;;;;2.67;1.73;;;13.50;51.70;;;;;;5127541;27;47104;-17
2022/01/02 11:03:19;;;;;;;1.90;1.70;;;13.50;51.60;;;;;;5127752;27;47003;-17
2022/01/02 11:05:47;;;;;;;2.28;1.90;;;13.50;51.50;;;;;;5127764;27;46820;-17
2022/01/02 11:08:15;;;;;;;2.33;1.80;;;13.50;51.50;;;;;;5127520;27;48750;-16
2022/01/02 11:10:41;;;;;;;2.22;1.77;;;13.60;51.60;;;;;;5127755;27;47418;-16
2022/01/02 11:13:08;;;;;;;1.63;1.53;;;13.60;51.50;;;;;;5127912;27;46824;-18
2022/01/02 11:15:35;;;;;;;2.40;1.80;;;13.60;51.60;;;;;;5127810;27;46918;-16
2022/01/02 11:18:01;;;;;;;1.85;1.75;;;13.60;51.50;;;;;;5127556;27;49111;-18
2022/01/02 11:20:30;;;;;;;2.00;1.77;;;13.60;51.40;;;;;;5127141;27;46946;-17
2022/01/02 11:23:04;;;;;;;2.40;1.60;;;13.60;51.50;;;;;;5127446;27;46827;-16
2022/01/02 11:25:34;;;;;;;1.73;1.43;;;13.60;51.50;;;;;;5127598;27;46899;-15
2022/01/02 11:28:03;;;;;;;1.90;1.67;;;13.60;51.50;;;;;;5127315;27;48139;-17
2022/01/02 11:30:39;;;;;;;2.13;1.92;;;13.60;51.40;;;;;;5127124;27;47084;-17
2022/01/02 11:33:07;;;;;;;1.60;1.50;;;13.60;51.30;;;;;;5127684;27;46813;-17
2022/01/02 11:35:35;;;;;;;1.50;1.40;;;13.60;51.40;;;;;;5127084;27;47122;-17
2022/01/02 11:38:04;;;;;;;1.73;1.63;;;13.70;51.50;;;;;;5127436;27;48113;-17
2022/01/02 11:40:47;;;;;;;1.40;1.30;;;13.70;51.40;;;;;;5127219;27;47018;-16
2022/01/02 11:43:53;;;;;;;1.63;1.53;;;13.70;51.40;;;;;;5127522;27;46878;-16
2022/01/02 11:46:24;;;;;;;1.77;1.67;;;13.70;51.40;;;;;;5127677;27;46996;-16
2022/01/02 11:49:20;;;;;;;1.90;1.80;;;13.70;51.40;;;;;;5127018;27;47852;-16
2022/01/02 11:52:07;;;;;;;2.10;1.63;;;13.70;51.50;;;;;;5127143;27;46877;-17
2022/01/02 11:54:49;;;;;;;2.80;1.80;;;13.70;51.30;;;;;;5127005;27;47065;-17
2022/01/02 11:57:53;;;;;;;1.90;1.70;;;13.70;51.30;;;;;;5127148;27;46845;-17
2022/01/02 12:00:45;;;;;;;1.75;1.65;;;13.70;51.30;;;;;;5126877;27;48172;-18
2022/01/02 12:03:49;;;;;;;1.70;1.60;;;13.70;51.30;;;;;;5126931;27;46899;-18
2022/01/02 12:06:33;;;;;;;1.67;1.57;;;13.80;51.40;;;;;;5113780;27;46992;-18
2022/01/02 12:08:59;;;;;;;1.65;1.50;;;13.80;51.40;;;;;;5127066;27;46934;-16
2022/01/02 12:11:44;;;;;;;1.70;1.40;;;13.80;51.30;;;;;;5127028;27;49070;-17
2022/01/02 12:14:17;;;;;;;1.80;1.70;;;13.80;51.30;;;;;;5126791;27;46802;-16
2022/01/02 12:16:45;;;;;;;1.47;1.37;;;13.80;51.20;;;;;;5126742;27;46959;-18
2022/01/02 12:19:11;;;;;;;1.67;1.40;;;13.90;51.30;;;;;;5126906;27;46870;-16
2022/01/02 12:21:38;;;;;;;1.50;1.40;;;13.90;51.30;;;;;;5126398;27;47147;-16
2022/01/02 12:24:12;;;;;;;1.60;1.50;;;13.90;51.40;;;;;;5126681;27;46941;-16
2022/01/02 12:26:40;;;;;;;1.67;1.55;;;13.90;51.40;;;;;;5126696;27;46896;-19
2022/01/02 12:29:07;;;;;;;1.65;1.55;;;13.90;51.30;;;;;;5126502;27;46840;-16
2022/01/02 12:31:35;;;;;;;2.05;1.40;;;13.90;51.30;;;;;;5126386;27;48066;-18
2022/01/02 12:34:07;;;;;;;1.50;1.40;;;14.00;51.30;;;;;;5126531;27;47026;-18
2022/01/02 12:36:34;;;;;;;1.50;1.40;;;14.00;51.30;;;;;;5126700;27;46842;-16
2022/01/02 12:39:02;;;;;;;1.17;1.10;;;14.00;51.30;;;;;;5126777;27;46979;-16
2022/01/02 12:41:30;;;;;;;1.38;1.35;;;14.00;51.30;;;;;;5126197;27;46876;-17
2022/01/02 12:43:59;;;;;;;1.50;1.40;;;14.00;51.30;;;;;;5126178;27;47442;-17
2022/01/02 12:46:33;;;;;;;1.85;1.70;;;14.00;51.30;;;;;;5126357;27;46932;-16
2022/01/02 12:49:00;;;;;;;1.73;1.40;;;14.00;51.30;;;;;;5129822;27;47168;-16
2022/01/02 12:51:29;;;;;;;1.60;1.50;;;14.00;51.40;;;;;;5129700;27;46948;-16
2022/01/02 12:54:02;;;;;;;1.40;1.30;;;14.00;51.50;;;;;;5129943;27;47005;-17
2022/01/02 12:56:33;;;;;;;1.27;1.13;;;14.00;51.50;;;;;;5129995;27;46826;-16
2022/01/02 12:59:18;;;;;;;1.40;1.30;;;14.10;51.50;;;;;;5129652;27;47244;-16